CWI785 NZCH-NZQN
Flight info
| Callsign | CWI785 |
|---|---|
| Flight time | 0h 43m |
| Altitude | 36000 |
| Route | GUPUT Y266 ELRUV |
| Aircraft | B737/M-SDE2E3FGHIRWXY/LB1 |
Departure
| Time | 2026-04-30 21:21 |
|---|---|
| Airport | Christchurch International Airport (NZCH) |
Arrival
| Time | 2026-04-30 22:04 |
|---|---|
| Airport | Queenstown Airport (NZQN) |
| Time | Latitude | Longitude | Altitude | Speed | Heading |
|---|---|---|---|---|---|
| 2026-04-30 20:48 | -43.49089 | 172.53955 | 109 ft | 0 kts | 40° |
| 2026-04-30 21:04 | -43.49091 | 172.53953 | 109 ft | 2 kts | 40° |
| 2026-04-30 21:04 | -43.49134 | 172.53924 | 108 ft | 4 kts | 338° |
| 2026-04-30 21:05 | -43.49148 | 172.53937 | 109 ft | 1 kts | 309° |
| 2026-04-30 21:05 | -43.49151 | 172.53941 | 109 ft | 0 kts | 309° |
| 2026-04-30 21:07 | -43.49150 | 172.53940 | 109 ft | 2 kts | 309° |
| 2026-04-30 21:07 | -43.49117 | 172.53885 | 111 ft | 8 kts | 309° |
| 2026-04-30 21:07 | -43.49081 | 172.53826 | 120 ft | 8 kts | 310° |
| 2026-04-30 21:08 | -43.49047 | 172.53770 | 111 ft | 8 kts | 310° |
| 2026-04-30 21:08 | -43.49013 | 172.53715 | 111 ft | 7 kts | 309° |
| 2026-04-30 21:08 | -43.48996 | 172.53686 | 110 ft | 0 kts | 309° |
| 2026-04-30 21:09 | -43.48987 | 172.53669 | 110 ft | 0 kts | 309° |
| 2026-04-30 21:09 | -43.48978 | 172.53655 | 110 ft | 0 kts | 309° |
| 2026-04-30 21:10 | -43.48977 | 172.53654 | 110 ft | 1 kts | 309° |
| 2026-04-30 21:11 | -43.48962 | 172.53628 | 112 ft | 6 kts | 309° |
| 2026-04-30 21:11 | -43.48928 | 172.53574 | 112 ft | 8 kts | 311° |
| 2026-04-30 21:11 | -43.48935 | 172.53502 | 112 ft | 10 kts | 220° |
| 2026-04-30 21:11 | -43.48994 | 172.53437 | 111 ft | 13 kts | 219° |
| 2026-04-30 21:12 | -43.49071 | 172.53349 | 107 ft | 16 kts | 220° |
| 2026-04-30 21:12 | -43.49152 | 172.53256 | 111 ft | 15 kts | 221° |
| 2026-04-30 21:12 | -43.49235 | 172.53156 | 111 ft | 17 kts | 218° |
| 2026-04-30 21:12 | -43.49309 | 172.53073 | 113 ft | 12 kts | 220° |
| 2026-04-30 21:13 | -43.49373 | 172.53000 | 115 ft | 12 kts | 220° |
| 2026-04-30 21:13 | -43.49437 | 172.52924 | 116 ft | 13 kts | 220° |
| 2026-04-30 21:13 | -43.49502 | 172.52837 | 117 ft | 13 kts | 243° |
| 2026-04-30 21:13 | -43.49505 | 172.52710 | 119 ft | 9 kts | 276° |
| 2026-04-30 21:14 | -43.49505 | 172.52702 | 119 ft | 0 kts | 276° |
| 2026-04-30 21:16 | -43.49504 | 172.52698 | 119 ft | 3 kts | 276° |
| 2026-04-30 21:16 | -43.49499 | 172.52627 | 113 ft | 12 kts | 281° |
| 2026-04-30 21:16 | -43.49420 | 172.52603 | 116 ft | 14 kts | 33° |
| 2026-04-30 21:16 | -43.49399 | 172.52627 | 114 ft | 0 kts | 41° |
| 2026-04-30 21:21 | -43.49230 | 172.52824 | 114 ft | 90 kts | 39° |
| 2026-04-30 21:21 | -43.47395 | 172.54867 | 1449 ft | 206 kts | 38° |
| 2026-04-30 21:22 | -43.46224 | 172.55976 | 3000 ft | 209 kts | 24° |
| 2026-04-30 21:22 | -43.42086 | 172.58433 | 6023 ft | 222 kts | 24° |
| 2026-04-30 21:23 | -43.40682 | 172.59330 | 7093 ft | 222 kts | 23° |
| 2026-04-30 21:23 | -43.39174 | 172.59775 | 7981 ft | 226 kts | 354° |
| 2026-04-30 21:23 | -43.36716 | 172.57367 | 9804 ft | 231 kts | 292° |
| 2026-04-30 21:24 | -43.36533 | 172.55193 | 10730 ft | 238 kts | 260° |
| 2026-04-30 21:24 | -43.37124 | 172.53078 | 11789 ft | 239 kts | 242° |
| 2026-04-30 21:24 | -43.37966 | 172.51098 | 12826 ft | 242 kts | 240° |
| 2026-04-30 21:24 | -43.38176 | 172.50624 | 13067 ft | 243 kts | 239° |
| 2026-04-30 21:25 | -43.40402 | 172.48368 | 14655 ft | 262 kts | 196° |
| 2026-04-30 21:25 | -43.42322 | 172.48080 | 15026 ft | 296 kts | 185° |
| 2026-04-30 21:25 | -43.44497 | 172.47997 | 15278 ft | 330 kts | 184° |
| 2026-04-30 21:26 | -43.49462 | 172.47852 | 16271 ft | 372 kts | 184° |
| 2026-04-30 21:26 | -43.52010 | 172.47213 | 17262 ft | 372 kts | 204° |
| 2026-04-30 21:27 | -43.55822 | 172.42593 | 19312 ft | 373 kts | 240° |
| 2026-04-30 21:27 | -43.57114 | 172.39456 | 20136 ft | 379 kts | 242° |
| 2026-04-30 21:27 | -43.58373 | 172.36228 | 20985 ft | 384 kts | 242° |
| 2026-04-30 21:28 | -43.60909 | 172.29654 | 22715 ft | 393 kts | 242° |
| 2026-04-30 21:28 | -43.62215 | 172.26301 | 23520 ft | 398 kts | 242° |
| 2026-04-30 21:28 | -43.64876 | 172.19534 | 24937 ft | 408 kts | 241° |
| 2026-04-30 21:29 | -43.66243 | 172.16071 | 25596 ft | 412 kts | 241° |
| 2026-04-30 21:29 | -43.70427 | 172.05465 | 27450 ft | 425 kts | 240° |
| 2026-04-30 21:30 | -43.73278 | 171.98217 | 28589 ft | 434 kts | 240° |
| 2026-04-30 21:31 | -43.77634 | 171.87101 | 30241 ft | 444 kts | 240° |
| 2026-04-30 21:31 | -43.80599 | 171.79509 | 31096 ft | 451 kts | 240° |
| 2026-04-30 21:32 | -43.83092 | 171.73110 | 31980 ft | 449 kts | 240° |
| 2026-04-30 21:32 | -43.84595 | 171.69319 | 32607 ft | 446 kts | 238° |
| 2026-04-30 21:32 | -43.86145 | 171.65670 | 33163 ft | 444 kts | 237° |
| 2026-04-30 21:32 | -43.87752 | 171.61996 | 33624 ft | 444 kts | 236° |
| 2026-04-30 21:33 | -43.89359 | 171.58328 | 34082 ft | 445 kts | 236° |
| 2026-04-30 21:33 | -43.92525 | 171.50995 | 35079 ft | 441 kts | 237° |
| 2026-04-30 21:33 | -43.94085 | 171.47343 | 35498 ft | 440 kts | 237° |
| 2026-04-30 21:34 | -43.95645 | 171.43683 | 35872 ft | 440 kts | 237° |
| 2026-04-30 21:34 | -43.98734 | 171.36406 | 36612 ft | 440 kts | 237° |
| 2026-04-30 21:34 | -44.00295 | 171.32709 | 36603 ft | 446 kts | 237° |
| 2026-04-30 21:35 | -44.03414 | 171.25297 | 36604 ft | 440 kts | 237° |
| 2026-04-30 21:35 | -44.06477 | 171.17999 | 36620 ft | 437 kts | 237° |
| 2026-04-30 21:36 | -44.09544 | 171.10682 | 36628 ft | 438 kts | 237° |
| 2026-04-30 21:37 | -44.15681 | 170.95982 | 36620 ft | 439 kts | 238° |
| 2026-04-30 21:37 | -44.18742 | 170.88619 | 36606 ft | 439 kts | 238° |
| 2026-04-30 21:38 | -44.21778 | 170.81299 | 36622 ft | 438 kts | 238° |
| 2026-04-30 21:38 | -44.24830 | 170.73924 | 36637 ft | 438 kts | 238° |
| 2026-04-30 21:39 | -44.27871 | 170.66558 | 36629 ft | 438 kts | 238° |
| 2026-04-30 21:39 | -44.30905 | 170.59193 | 36645 ft | 437 kts | 238° |
| 2026-04-30 21:40 | -44.33915 | 170.51864 | 36637 ft | 436 kts | 238° |
| 2026-04-30 21:40 | -44.36928 | 170.44509 | 36653 ft | 436 kts | 238° |
| 2026-04-30 21:41 | -44.39940 | 170.37139 | 36654 ft | 436 kts | 238° |
| 2026-04-30 21:41 | -44.42942 | 170.29772 | 36654 ft | 435 kts | 238° |
| 2026-04-30 21:42 | -44.45923 | 170.22439 | 36654 ft | 435 kts | 238° |
| 2026-04-30 21:42 | -44.48915 | 170.15060 | 36652 ft | 435 kts | 238° |
| 2026-04-30 21:43 | -44.51904 | 170.07668 | 36653 ft | 436 kts | 238° |
| 2026-04-30 21:43 | -44.54892 | 170.00258 | 36656 ft | 436 kts | 238° |
| 2026-04-30 21:44 | -44.57860 | 169.92880 | 36645 ft | 436 kts | 238° |
| 2026-04-30 21:44 | -44.60835 | 169.85466 | 36648 ft | 436 kts | 239° |
| 2026-04-30 21:45 | -44.63807 | 169.78037 | 36645 ft | 435 kts | 239° |
| 2026-04-30 21:45 | -44.66766 | 169.70619 | 36638 ft | 435 kts | 239° |
| 2026-04-30 21:46 | -44.69704 | 169.63231 | 36650 ft | 435 kts | 239° |
| 2026-04-30 21:46 | -44.72659 | 169.55783 | 36630 ft | 435 kts | 239° |
| 2026-04-30 21:47 | -44.74144 | 169.52033 | 35849 ft | 443 kts | 239° |
| 2026-04-30 21:47 | -44.75644 | 169.48239 | 35066 ft | 441 kts | 239° |
| 2026-04-30 21:47 | -44.77136 | 169.44459 | 34095 ft | 443 kts | 239° |
| 2026-04-30 21:47 | -44.78641 | 169.40646 | 33062 ft | 445 kts | 239° |
| 2026-04-30 21:48 | -44.80148 | 169.36818 | 32031 ft | 446 kts | 239° |
| 2026-04-30 21:48 | -44.81635 | 169.32975 | 31210 ft | 444 kts | 243° |
| 2026-04-30 21:48 | -44.82754 | 169.28994 | 30433 ft | 441 kts | 251° |
| 2026-04-30 21:48 | -44.83658 | 169.24875 | 29600 ft | 436 kts | 252° |
| 2026-04-30 21:49 | -44.84498 | 169.20798 | 28844 ft | 430 kts | 253° |
| 2026-04-30 21:49 | -44.85334 | 169.16781 | 28112 ft | 424 kts | 252° |
| 2026-04-30 21:49 | -44.86184 | 169.12822 | 27363 ft | 419 kts | 252° |
| 2026-04-30 21:49 | -44.87044 | 169.08921 | 26639 ft | 414 kts | 252° |
| 2026-04-30 21:50 | -44.87903 | 169.05069 | 25928 ft | 410 kts | 252° |
| 2026-04-30 21:50 | -44.88757 | 169.01257 | 25214 ft | 406 kts | 252° |
| 2026-04-30 21:50 | -44.89602 | 168.97476 | 24508 ft | 402 kts | 252° |
| 2026-04-30 21:50 | -44.90438 | 168.93720 | 23701 ft | 399 kts | 252° |
| 2026-04-30 21:51 | -44.91022 | 168.89917 | 22931 ft | 395 kts | 266° |
| 2026-04-30 21:51 | -44.90932 | 168.86081 | 22275 ft | 388 kts | 273° |
| 2026-04-30 21:51 | -44.90752 | 168.82359 | 21577 ft | 384 kts | 273° |
| 2026-04-30 21:51 | -44.90590 | 168.78616 | 20873 ft | 380 kts | 272° |
| 2026-04-30 21:52 | -44.90449 | 168.74868 | 20166 ft | 376 kts | 272° |
| 2026-04-30 21:52 | -44.90324 | 168.71265 | 19497 ft | 373 kts | 272° |
| 2026-04-30 21:52 | -44.90215 | 168.67624 | 18796 ft | 369 kts | 269° |
| 2026-04-30 21:52 | -44.90624 | 168.64078 | 18019 ft | 366 kts | 251° |
| 2026-04-30 21:53 | -44.91660 | 168.60817 | 17345 ft | 362 kts | 244° |
| 2026-04-30 21:53 | -44.92818 | 168.57677 | 16626 ft | 359 kts | 243° |
| 2026-04-30 21:53 | -44.93952 | 168.54605 | 15977 ft | 355 kts | 244° |
| 2026-04-30 21:53 | -44.95070 | 168.51501 | 15317 ft | 352 kts | 245° |
| 2026-04-30 21:54 | -44.96164 | 168.48415 | 14641 ft | 350 kts | 245° |
| 2026-04-30 21:54 | -44.97243 | 168.45351 | 13895 ft | 348 kts | 245° |
| 2026-04-30 21:54 | -44.98318 | 168.42290 | 13178 ft | 346 kts | 245° |
| 2026-04-30 21:54 | -44.99381 | 168.39266 | 12553 ft | 340 kts | 245° |
| 2026-04-30 21:55 | -45.00428 | 168.36284 | 11921 ft | 336 kts | 245° |
| 2026-04-30 21:55 | -45.01459 | 168.33343 | 11303 ft | 332 kts | 245° |
| 2026-04-30 21:55 | -45.02491 | 168.30485 | 10921 ft | 322 kts | 241° |
| 2026-04-30 21:55 | -45.03863 | 168.28049 | 10613 ft | 315 kts | 225° |
| 2026-04-30 21:56 | -45.05633 | 168.26293 | 10249 ft | 309 kts | 210° |
| 2026-04-30 21:56 | -45.07606 | 168.25257 | 9935 ft | 304 kts | 195° |
| 2026-04-30 21:56 | -45.09650 | 168.24948 | 9917 ft | 289 kts | 181° |
| 2026-04-30 21:56 | -45.11635 | 168.25328 | 9527 ft | 288 kts | 167° |
| 2026-04-30 21:57 | -45.13501 | 168.26345 | 9049 ft | 293 kts | 152° |
| 2026-04-30 21:57 | -45.15018 | 168.28146 | 8979 ft | 276 kts | 130° |
| 2026-04-30 21:57 | -45.15981 | 168.30386 | 8895 ft | 257 kts | 115° |
| 2026-04-30 21:57 | -45.16483 | 168.32730 | 8670 ft | 243 kts | 96° |
| 2026-04-30 21:58 | -45.16448 | 168.35043 | 8450 ft | 233 kts | 80° |
| 2026-04-30 21:58 | -45.16025 | 168.37277 | 8052 ft | 231 kts | 66° |
| 2026-04-30 21:58 | -45.15298 | 168.39269 | 7605 ft | 229 kts | 58° |
| 2026-04-30 21:58 | -45.14542 | 168.41302 | 6880 ft | 241 kts | 60° |
| 2026-04-30 21:59 | -45.13754 | 168.43412 | 6223 ft | 244 kts | 60° |
| 2026-04-30 21:59 | -45.12967 | 168.45500 | 5859 ft | 236 kts | 60° |
| 2026-04-30 21:59 | -45.12208 | 168.47519 | 5520 ft | 228 kts | 60° |
| 2026-04-30 22:00 | -45.10771 | 168.51348 | 4884 ft | 211 kts | 60° |
| 2026-04-30 22:00 | -45.09423 | 168.54938 | 4314 ft | 203 kts | 59° |
| 2026-04-30 22:00 | -45.08767 | 168.56683 | 4033 ft | 200 kts | 60° |
| 2026-04-30 22:01 | -45.08105 | 168.58442 | 3735 ft | 196 kts | 61° |
| 2026-04-30 22:01 | -45.07493 | 168.60068 | 3453 ft | 185 kts | 61° |
| 2026-04-30 22:01 | -45.06905 | 168.61628 | 3206 ft | 174 kts | 61° |
| 2026-04-30 22:01 | -45.06351 | 168.63100 | 2982 ft | 168 kts | 62° |
| 2026-04-30 22:02 | -45.05799 | 168.64566 | 2760 ft | 168 kts | 61° |
| 2026-04-30 22:02 | -45.05260 | 168.65996 | 2530 ft | 160 kts | 61° |
| 2026-04-30 22:02 | -45.04703 | 168.67344 | 2237 ft | 159 kts | 53° |
| 2026-04-30 22:02 | -45.04018 | 168.68516 | 2134 ft | 149 kts | 46° |
| 2026-04-30 22:03 | -45.03347 | 168.69524 | 2063 ft | 138 kts | 45° |
| 2026-04-30 22:03 | -45.02710 | 168.70537 | 1887 ft | 137 kts | 54° |
| 2026-04-30 22:03 | -45.02312 | 168.71742 | 1646 ft | 135 kts | 72° |
| 2026-04-30 22:03 | -45.02084 | 168.72992 | 1320 ft | 131 kts | 78° |
| 2026-04-30 22:04 | -45.01904 | 168.74165 | 1178 ft | 114 kts | 78° |
| 2026-04-30 22:04 | -45.01761 | 168.75082 | 1204 ft | 72 kts | 78° |
| 2026-04-30 22:04 | -45.01712 | 168.75456 | 1216 ft | 2 kts | 341° |
| 2026-04-30 22:05 | -45.01714 | 168.75387 | 1214 ft | 13 kts | 256° |
| 2026-04-30 22:05 | -45.01738 | 168.75240 | 1211 ft | 16 kts | 258° |
| 2026-04-30 22:05 | -45.01761 | 168.75088 | 1197 ft | 17 kts | 258° |
| 2026-04-30 22:05 | -45.01797 | 168.74858 | 1168 ft | 22 kts | 250° |
| 2026-04-30 22:06 | -45.01873 | 168.74780 | 1168 ft | 9 kts | 214° |
| 2026-04-30 22:06 | -45.01921 | 168.74635 | 1170 ft | 9 kts | 257° |
| 2026-04-30 22:06 | -45.01934 | 168.74552 | 1170 ft | 9 kts | 257° |
| 2026-04-30 22:07 | -45.01947 | 168.74470 | 1173 ft | 8 kts | 257° |
| 2026-04-30 22:07 | -45.01960 | 168.74391 | 1174 ft | 8 kts | 257° |
| 2026-04-30 22:07 | -45.01973 | 168.74305 | 1174 ft | 10 kts | 257° |
| 2026-04-30 22:07 | -45.01993 | 168.74217 | 1175 ft | 8 kts | 231° |
| 2026-04-30 22:08 | -45.02045 | 168.74180 | 1170 ft | 9 kts | 205° |
| 2026-04-30 22:08 | -45.02104 | 168.74162 | 1168 ft | 9 kts | 169° |
| 2026-04-30 22:08 | -45.02128 | 168.74168 | 1172 ft | 0 kts | 169° |
| 2026-04-30 22:08 | -45.02136 | 168.74170 | 1169 ft | 5 kts | 173° |
| 2026-04-30 22:09 | -45.02155 | 168.74139 | 1172 ft | 5 kts | 269° |
| 2026-04-30 22:09 | -45.02158 | 168.74103 | 1171 ft | 0 kts | 248° |
| 2026-04-30 22:09 | -45.02160 | 168.74099 | 1170 ft | 0 kts | 248° |